Time;durP1;ratioP1;P1;durP2;ratioP2;P2;SDS_P1;SDS_P2;PMS_P1;PMS_P2;Temp;Humidity;BMP_temperature;BMP_pressure;BME280_temperature;BME280_humidity;BME280_pressure;Samples;Min_cycle;Max_cycle;Signal;HPM_P1;HPM_P2
2021/11/25 00:20:34;;;;;;;4.93;3.65;;;;;;;;;;4179198;31;20583;-68
2021/11/25 00:23:00;;;;;;;6.62;3.83;;;;;;;;;;4210626;34;20208;-68
2021/11/25 00:25:26;;;;;;;4.20;3.50;;;;;;;;;;4203604;34;20093;-67
2021/11/25 00:27:52;;;;;;;7.43;4.40;;;;;;;;;;4191932;34;20407;-66
2021/11/25 00:30:18;;;;;;;5.03;3.75;;;;;;;;;;4180423;34;20125;-67
2021/11/25 00:32:45;;;;;;;5.07;3.60;;;;;;;;;;4191879;34;20551;-67
2021/11/25 00:35:11;;;;;;;3.92;3.37;;;;;;;;;;4204467;34;20094;-67
2021/11/25 00:37:38;;;;;;;6.35;4.15;;;;;;;;;;4204690;34;20473;-67
2021/11/25 00:40:12;;;;;;;9.48;4.50;;;;;;;;;;4180631;34;20112;-67
2021/11/25 00:42:38;;;;;;;4.75;4.12;;;;;;;;;;4191839;34;20601;-68
2021/11/25 00:45:05;;;;;;;4.10;3.70;;;;;;;;;;4204316;34;20137;-69
2021/11/25 00:47:31;;;;;;;3.40;2.62;;;;;;;;;;4204697;34;20117;-68
2021/11/25 00:49:57;;;;;;;6.60;3.83;;;;;;;;;;4204507;34;20230;-68
2021/11/25 00:52:25;;;;;;;6.20;3.42;;;;;;;;;;4204648;34;20110;-67
2021/11/25 00:54:51;;;;;;;4.22;3.75;;;;;;;;;;4204473;34;20106;-68
2021/11/25 00:57:17;;;;;;;5.07;3.20;;;;;;;;;;4204412;34;20466;-68
2021/11/25 00:59:43;;;;;;;12.37;3.47;;;;;;;;;;4204301;34;20125;-69
2021/11/25 01:02:09;;;;;;;7.57;3.47;;;;;;;;;;4191850;34;20125;-67
2021/11/25 01:04:36;;;;;;;3.65;3.03;;;;;;;;;;4191385;34;20308;-67
2021/11/25 01:07:02;;;;;;;4.78;3.40;;;;;;;;;;4204332;34;20137;-67
2021/11/25 01:09:28;;;;;;;5.93;3.40;;;;;;;;;;4204372;34;20122;-67
2021/11/25 01:12:01;;;;;;;10.35;3.28;;;;;;;;;;4179967;34;20116;-67
2021/11/25 01:14:32;;;;;;;18.52;3.47;;;;;;;;;;4191512;34;20108;-69
2021/11/25 01:16:58;;;;;;;17.33;3.55;;;;;;;;;;4191381;34;20593;-68
2021/11/25 01:19:24;;;;;;;21.23;3.87;;;;;;;;;;4191482;34;20326;-67
2021/11/25 01:21:51;;;;;;;7.45;3.90;;;;;;;;;;4204437;34;20208;-69
2021/11/25 01:24:17;;;;;;;6.07;3.35;;;;;;;;;;4204380;34;20110;-68
2021/11/25 01:26:43;;;;;;;6.93;3.42;;;;;;;;;;4204499;34;20123;-67
2021/11/25 01:29:11;;;;;;;5.55;3.78;;;;;;;;;;4204196;34;20116;-68
2021/11/25 01:31:38;;;;;;;4.47;3.20;;;;;;;;;;4204083;34;20117;-67
2021/11/25 01:34:05;;;;;;;6.10;3.15;;;;;;;;;;4191143;34;20149;-68
2021/11/25 01:36:31;;;;;;;6.15;3.20;;;;;;;;;;4179995;34;20498;-68
2021/11/25 01:38:57;;;;;;;7.10;3.30;;;;;;;;;;4191207;34;20105;-68
2021/11/25 01:41:23;;;;;;;6.32;3.97;;;;;;;;;;4204338;34;20221;-68
2021/11/25 01:43:49;;;;;;;6.60;3.50;;;;;;;;;;4204037;34;20102;-68
2021/11/25 01:46:18;;;;;;;10.43;4.62;;;;;;;;;;4190834;34;20111;-68
2021/11/25 01:48:47;;;;;;;5.55;3.62;;;;;;;;;;4191331;34;20212;-68
2021/11/25 01:51:14;;;;;;;10.80;3.95;;;;;;;;;;4191150;34;20133;-68
2021/11/25 01:53:40;;;;;;;5.87;4.03;;;;;;;;;;4191046;34;20113;-69
2021/11/25 01:56:07;;;;;;;5.53;4.40;;;;;;;;;;4203768;34;20446;-68
2021/11/25 01:58:33;;;;;;;5.70;3.80;;;;;;;;;;4203870;34;20124;-68
2021/11/25 02:01:01;;;;;;;19.77;5.20;;;;;;;;;;4203785;34;20620;-68
2021/11/25 02:03:29;;;;;;;7.03;4.30;;;;;;;;;;4191180;34;20102;-68
2021/11/25 02:05:55;;;;;;;6.25;3.80;;;;;;;;;;4203755;34;20225;-68
2021/11/25 02:08:21;;;;;;;5.00;4.15;;;;;;;;;;4203718;34;20120;-68
2021/11/25 02:10:49;;;;;;;7.10;4.40;;;;;;;;;;4203704;34;20571;-68
2021/11/25 02:13:16;;;;;;;7.10;4.37;;;;;;;;;;4203613;34;20542;-70
2021/11/25 02:15:42;;;;;;;7.40;4.68;;;;;;;;;;4168341;34;20508;-69
2021/11/25 02:18:11;;;;;;;22.60;5.10;;;;;;;;;;4190729;34;20522;-68
2021/11/25 02:20:38;;;;;;;4.80;4.30;;;;;;;;;;4179269;34;20121;-68
2021/11/25 02:23:05;;;;;;;5.40;4.43;;;;;;;;;;4190701;34;20111;-68
2021/11/25 02:25:31;;;;;;;7.00;5.32;;;;;;;;;;4190762;34;20578;-69
2021/11/25 02:27:57;;;;;;;6.68;5.00;;;;;;;;;;4203644;34;20125;-69
2021/11/25 02:30:24;;;;;;;7.12;4.12;;;;;;;;;;4192795;34;20102;-69
2021/11/25 02:32:50;;;;;;;7.32;4.60;;;;;;;;;;4205716;34;20110;-69
2021/11/25 02:35:19;;;;;;;5.47;4.43;;;;;;;;;;4181414;34;20134;-69
2021/11/25 02:37:46;;;;;;;7.03;5.12;;;;;;;;;;4192982;34;20106;-69
2021/11/25 02:40:27;;;;;;;7.75;5.72;;;;;;;;;;4192655;34;20121;-69
2021/11/25 02:43:00;;;;;;;5.50;4.85;;;;;;;;;;4192968;34;20105;-69
2021/11/25 02:45:27;;;;;;;6.82;5.40;;;;;;;;;;4193018;34;20542;-69
2021/11/25 02:47:53;;;;;;;5.87;5.12;;;;;;;;;;4192836;34;20589;-69
2021/11/25 02:50:21;;;;;;;7.70;5.37;;;;;;;;;;4205279;34;20205;-69
2021/11/25 02:52:48;;;;;;;6.75;4.85;;;;;;;;;;4181518;34;20201;-69
2021/11/25 02:55:15;;;;;;;5.35;4.75;;;;;;;;;;4205635;34;20205;-69
2021/11/25 02:57:41;;;;;;;7.12;5.72;;;;;;;;;;4205646;34;20217;-69
2021/11/25 03:00:28;;;;;;;16.77;6.15;;;;;;;;;;4192504;34;20132;-69
2021/11/25 03:03:00;;;;;;;9.77;4.78;;;;;;;;;;4205618;34;20090;-68
2021/11/25 03:05:26;;;;;;;6.07;5.10;;;;;;;;;;4205341;34;20201;-68
2021/11/25 03:07:52;;;;;;;5.05;4.53;;;;;;;;;;4205436;34;20121;-68
2021/11/25 03:10:18;;;;;;;8.18;5.53;;;;;;;;;;4205268;34;20124;-67
2021/11/25 03:12:44;;;;;;;7.45;5.85;;;;;;;;;;4205260;34;20212;-67
2021/11/25 03:15:11;;;;;;;5.87;5.15;;;;;;;;;;4205530;34;20145;-66
2021/11/25 03:17:38;;;;;;;6.20;5.07;;;;;;;;;;4205503;34;20082;-65
2021/11/25 03:20:05;;;;;;;5.55;4.70;;;;;;;;;;4191801;34;20136;-65
2021/11/25 03:22:31;;;;;;;7.80;5.50;;;;;;;;;;4205132;34;20205;-66
2021/11/25 03:24:57;;;;;;;9.52;5.70;;;;;;;;;;4192476;34;20113;-65
2021/11/25 03:27:23;;;;;;;6.62;5.18;;;;;;;;;;4205236;34;20121;-66
2021/11/25 03:29:49;;;;;;;6.12;5.20;;;;;;;;;;4205512;34;20132;-65
2021/11/25 03:32:15;;;;;;;5.68;5.18;;;;;;;;;;4205157;34;20221;-66
2021/11/25 03:34:41;;;;;;;6.82;5.72;;;;;;;;;;4205400;34;20124;-66
2021/11/25 03:37:07;;;;;;;6.28;5.68;;;;;;;;;;4205439;34;20261;-67
2021/11/25 03:39:33;;;;;;;6.70;5.78;;;;;;;;;;4204961;34;20126;-67
2021/11/25 03:41:59;;;;;;;8.35;5.60;;;;;;;;;;4191677;34;20213;-66
2021/11/25 03:44:25;;;;;;;7.75;5.70;;;;;;;;;;4205264;34;20118;-66
2021/11/25 03:46:53;;;;;;;5.70;4.57;;;;;;;;;;4192185;34;20218;-66
2021/11/25 03:49:19;;;;;;;8.93;5.65;;;;;;;;;;4181071;34;20101;-65
2021/11/25 03:51:45;;;;;;;6.53;5.50;;;;;;;;;;4204928;34;20110;-66
2021/11/25 03:54:11;;;;;;;5.68;4.80;;;;;;;;;;4204996;34;20114;-66
2021/11/25 03:56:37;;;;;;;5.95;5.05;;;;;;;;;;4192249;34;20117;-64
2021/11/25 03:59:03;;;;;;;6.25;5.65;;;;;;;;;;4192329;34;20539;-64
2021/11/25 04:01:29;;;;;;;6.12;5.53;;;;;;;;;;4204964;34;20114;-64
2021/11/25 04:03:55;;;;;;;9.02;5.57;;;;;;;;;;4205008;34;20128;-65
2021/11/25 04:06:21;;;;;;;6.80;5.18;;;;;;;;;;4191966;34;20449;-64
2021/11/25 04:08:47;;;;;;;8.55;5.10;;;;;;;;;;4191945;34;20133;-64
2021/11/25 04:11:13;;;;;;;5.85;5.03;;;;;;;;;;4204705;34;20225;-65
2021/11/25 04:13:39;;;;;;;6.93;5.53;;;;;;;;;;4191936;34;20126;-65
2021/11/25 04:16:05;;;;;;;12.02;6.00;;;;;;;;;;4204742;34;20094;-64
2021/11/25 04:18:31;;;;;;;7.53;5.12;;;;;;;;;;4204737;34;20122;-64
2021/11/25 04:20:57;;;;;;;6.12;5.53;;;;;;;;;;4204664;34;20213;-65
2021/11/25 04:23:23;;;;;;;7.22;5.32;;;;;;;;;;4204708;34;20210;-64
2021/11/25 04:25:50;;;;;;;8.23;6.05;;;;;;;;;;4192005;34;20104;-64
2021/11/25 04:28:16;;;;;;;7.35;5.43;;;;;;;;;;4204871;34;20459;-64
2021/11/25 04:35:54;;;;;;;;;;;;;;;;;;4194419;34;20120;-64
2021/11/25 04:38:21;;;;;;;5.85;4.78;;;;;;;;;;4204777;34;20085;-65
2021/11/25 04:40:53;;;;;;;9.13;6.40;;;;;;;;;;4204608;34;20114;-64
2021/11/25 04:43:20;;;;;;;11.12;5.78;;;;;;;;;;4192231;34;20117;-64
2021/11/25 04:45:48;;;;;;;6.62;5.72;;;;;;;;;;4191756;34;20617;-64
2021/11/25 04:48:15;;;;;;;8.90;5.95;;;;;;;;;;4191502;34;20209;-64
2021/11/25 04:50:41;;;;;;;6.95;5.20;;;;;;;;;;4204545;34;20108;-63
2021/11/25 04:53:10;;;;;;;5.65;5.05;;;;;;;;;;4191031;34;20109;-66
2021/11/25 04:55:36;;;;;;;6.97;5.00;;;;;;;;;;4204538;34;20202;-63
2021/11/25 04:58:03;;;;;;;8.25;5.62;;;;;;;;;;4204496;34;20537;-64
2021/11/25 05:00:29;;;;;;;6.70;5.78;;;;;;;;;;4204646;34;20593;-64
2021/11/25 05:02:55;;;;;;;7.35;5.68;;;;;;;;;;4204464;34;20121;-67
2021/11/25 05:05:22;;;;;;;8.40;5.37;;;;;;;;;;4191497;34;20184;-66
2021/11/25 05:07:49;;;;;;;6.82;5.93;;;;;;;;;;4204476;34;20450;-66
2021/11/25 05:10:15;;;;;;;9.25;5.82;;;;;;;;;;4191900;34;20114;-67
2021/11/25 05:12:41;;;;;;;8.15;5.97;;;;;;;;;;4191485;34;20188;-66
2021/11/25 05:15:09;;;;;;;6.25;5.65;;;;;;;;;;4204585;34;20161;-66
2021/11/25 05:17:36;;;;;;;6.68;5.50;;;;;;;;;;4204388;34;20117;-64
2021/11/25 05:20:04;;;;;;;6.32;5.40;;;;;;;;;;4204299;34;20558;-67
2021/11/25 05:22:30;;;;;;;7.30;5.93;;;;;;;;;;4190355;34;20102;-67
2021/11/25 05:24:57;;;;;;;6.97;5.75;;;;;;;;;;4203334;34;20126;-67
2021/11/25 05:27:23;;;;;;;6.93;5.47;;;;;;;;;;4191406;34;20109;-67
2021/11/25 05:29:49;;;;;;;7.12;5.78;;;;;;;;;;4204411;34;20122;-68
2021/11/25 05:32:16;;;;;;;6.05;5.25;;;;;;;;;;4191553;34;20181;-66
2021/11/25 05:34:46;;;;;;;7.75;6.75;;;;;;;;;;4191611;34;20587;-68
2021/11/25 05:37:13;;;;;;;6.55;5.68;;;;;;;;;;4204170;34;20467;-68
2021/11/25 05:39:40;;;;;;;7.30;5.32;;;;;;;;;;4204153;34;20110;-68
2021/11/25 05:42:06;;;;;;;7.37;5.87;;;;;;;;;;4191333;34;20113;-66
2021/11/25 05:44:32;;;;;;;5.68;5.07;;;;;;;;;;4204162;34;20129;-66
2021/11/25 05:46:59;;;;;;;6.00;5.32;;;;;;;;;;4203932;34;20213;-66
2021/11/25 05:49:25;;;;;;;6.93;5.95;;;;;;;;;;4204155;34;20113;-66
2021/11/25 05:51:51;;;;;;;8.75;5.75;;;;;;;;;;4179409;34;20125;-67
2021/11/25 05:54:17;;;;;;;10.07;6.57;;;;;;;;;;4203976;34;20154;-67
2021/11/25 05:56:43;;;;;;;13.00;6.75;;;;;;;;;;4191223;34;20125;-67
2021/11/25 05:59:12;;;;;;;7.32;6.25;;;;;;;;;;4203961;34;20215;-66
2021/11/25 06:01:39;;;;;;;7.85;6.03;;;;;;;;;;4203794;34;20110;-65
2021/11/25 06:04:05;;;;;;;27.83;7.40;;;;;;;;;;4204748;34;20117;-65
2021/11/25 06:06:31;;;;;;;6.80;5.10;;;;;;;;;;4205892;34;20110;-65
2021/11/25 06:08:58;;;;;;;9.77;5.72;;;;;;;;;;4205900;34;20198;-65
2021/11/25 06:11:24;;;;;;;10.10;6.35;;;;;;;;;;4193136;34;20470;-63
2021/11/25 06:13:51;;;;;;;11.18;6.53;;;;;;;;;;4193205;34;20495;-64
2021/11/25 06:16:17;;;;;;;8.25;6.72;;;;;;;;;;4206027;34;20097;-64
2021/11/25 06:18:43;;;;;;;8.43;6.30;;;;;;;;;;4206423;34;20438;-64
2021/11/25 06:21:09;;;;;;;17.75;6.68;;;;;;;;;;4205850;34;20117;-65
2021/11/25 06:23:35;;;;;;;6.65;5.78;;;;;;;;;;4205685;34;20206;-65
2021/11/25 06:26:01;;;;;;;8.63;6.55;;;;;;;;;;4205779;34;20097;-65
2021/11/25 06:28:28;;;;;;;7.18;6.47;;;;;;;;;;4191894;34;20582;-65
2021/11/25 06:30:54;;;;;;;15.80;7.12;;;;;;;;;;4204885;34;20138;-64
2021/11/25 06:33:20;;;;;;;7.78;6.30;;;;;;;;;;4205350;34;20217;-65
2021/11/25 06:35:46;;;;;;;6.93;6.22;;;;;;;;;;4205601;34;20217;-64
2021/11/25 06:38:12;;;;;;;7.03;5.85;;;;;;;;;;4205166;34;20118;-65
2021/11/25 06:40:38;;;;;;;9.13;6.35;;;;;;;;;;4205407;34;20128;-64
2021/11/25 06:43:07;;;;;;;41.35;7.60;;;;;;;;;;4205327;34;20106;-64
2021/11/25 06:45:35;;;;;;;7.05;6.35;;;;;;;;;;4192656;34;20125;-65
2021/11/25 06:48:01;;;;;;;11.27;6.28;;;;;;;;;;4205401;34;20098;-64
2021/11/25 06:50:27;;;;;;;7.60;6.28;;;;;;;;;;4205762;34;20197;-64
2021/11/25 06:52:54;;;;;;;8.40;6.47;;;;;;;;;;4191837;34;20197;-65
2021/11/25 06:55:21;;;;;;;7.60;6.90;;;;;;;;;;4192258;34;20126;-65
2021/11/25 06:57:49;;;;;;;6.97;6.28;;;;;;;;;;4205372;34;20094;-65
2021/11/25 07:00:17;;;;;;;8.65;7.75;;;;;;;;;;4205200;34;20138;-65
2021/11/25 07:02:44;;;;;;;7.85;6.87;;;;;;;;;;4205527;34;20537;-66
2021/11/25 07:05:11;;;;;;;7.30;6.60;;;;;;;;;;4205247;34;20129;-64
2021/11/25 07:07:37;;;;;;;7.72;6.55;;;;;;;;;;4205292;34;20133;-62
2021/11/25 07:10:04;;;;;;;11.23;7.20;;;;;;;;;;4205217;34;20121;-65
2021/11/25 07:12:30;;;;;;;7.75;6.30;;;;;;;;;;4205079;34;20118;-65
2021/11/25 07:14:56;;;;;;;9.50;6.62;;;;;;;;;;4204847;34;20199;-65
2021/11/25 07:17:22;;;;;;;6.95;6.18;;;;;;;;;;4205234;34;20117;-65
2021/11/25 07:19:48;;;;;;;7.53;6.80;;;;;;;;;;4205005;34;20189;-64
2021/11/25 07:22:15;;;;;;;6.87;6.20;;;;;;;;;;4205189;34;20129;-66
2021/11/25 07:24:41;;;;;;;9.05;6.68;;;;;;;;;;4205235;34;20124;-66
2021/11/25 07:27:07;;;;;;;7.72;6.60;;;;;;;;;;4205044;34;20233;-67
2021/11/25 07:29:35;;;;;;;7.30;5.87;;;;;;;;;;4191935;34;20101;-67
2021/11/25 07:32:02;;;;;;;7.93;7.10;;;;;;;;;;4205202;34;20101;-67
2021/11/25 07:34:28;;;;;;;8.80;6.95;;;;;;;;;;4205043;34;20118;-67
2021/11/25 07:36:54;;;;;;;8.60;7.07;;;;;;;;;;4205266;34;20142;-67
2021/11/25 07:39:20;;;;;;;6.90;6.30;;;;;;;;;;4207085;33;20125;-66
2021/11/25 07:41:46;;;;;;;7.03;6.37;;;;;;;;;;4196446;34;20102;-65
2021/11/25 07:44:12;;;;;;;6.87;6.18;;;;;;;;;;4212870;33;20126;-66
2021/11/25 07:46:38;;;;;;;7.03;6.32;;;;;;;;;;4217124;34;20197;-66
2021/11/25 07:49:04;;;;;;;7.15;6.45;;;;;;;;;;4204826;33;20154;-67
2021/11/25 07:51:31;;;;;;;7.32;6.60;;;;;;;;;;4210179;34;20122;-66
2021/11/25 07:53:58;;;;;;;8.10;6.50;;;;;;;;;;4203367;34;20101;-67
2021/11/25 07:56:24;;;;;;;10.20;6.40;;;;;;;;;;4205290;34;20105;-66
2021/11/25 07:58:50;;;;;;;7.70;6.87;;;;;;;;;;4210420;33;20160;-66
2021/11/25 08:01:17;;;;;;;7.12;6.43;;;;;;;;;;4203779;34;20196;-67
2021/11/25 08:03:42;;;;;;;7.00;6.30;;;;;;;;;;4206098;34;20462;-66
2021/11/25 08:06:09;;;;;;;6.47;5.80;;;;;;;;;;4211524;34;20110;-67
2021/11/25 08:08:35;;;;;;;6.62;5.70;;;;;;;;;;4208422;33;20117;-65
2021/11/25 08:11:03;;;;;;;7.40;5.95;;;;;;;;;;4214857;34;20564;-67
2021/11/25 08:13:32;;;;;;;7.28;6.32;;;;;;;;;;4211956;33;20137;-66
2021/11/25 08:15:58;;;;;;;7.18;6.47;;;;;;;;;;4211538;34;20101;-67
2021/11/25 08:18:24;;;;;;;8.57;6.30;;;;;;;;;;4211068;34;20161;-66
2021/11/25 08:20:50;;;;;;;7.22;6.25;;;;;;;;;;4199710;34;20106;-67
2021/11/25 08:23:16;;;;;;;7.93;7.05;;;;;;;;;;4210311;34;20545;-66
2021/11/25 08:25:42;;;;;;;6.70;6.00;;;;;;;;;;4208206;34;20113;-66
2021/11/25 08:28:09;;;;;;;6.78;6.18;;;;;;;;;;4208838;34;20129;-68
2021/11/25 08:30:35;;;;;;;7.03;6.32;;;;;;;;;;4202202;34;20114;-67
2021/11/25 08:33:01;;;;;;;7.53;6.45;;;;;;;;;;4201392;34;20205;-66
2021/11/25 08:35:27;;;;;;;7.45;6.75;;;;;;;;;;4202951;34;20097;-67
2021/11/25 08:37:56;;;;;;;7.20;6.50;;;;;;;;;;4203125;34;20104;-68
2021/11/25 08:40:23;;;;;;;8.73;6.75;;;;;;;;;;4193026;34;20125;-66
2021/11/25 08:42:50;;;;;;;7.80;6.45;;;;;;;;;;4208722;34;20213;-67
2021/11/25 08:45:17;;;;;;;8.45;6.78;;;;;;;;;;4210666;34;20112;-67
2021/11/25 08:47:43;;;;;;;8.00;7.28;;;;;;;;;;4211927;34;20557;-66
2021/11/25 08:50:11;;;;;;;8.13;6.37;;;;;;;;;;4198284;34;20093;-67
2021/11/25 08:52:37;;;;;;;8.27;6.43;;;;;;;;;;4208153;34;20097;-67
2021/11/25 08:55:04;;;;;;;7.62;6.75;;;;;;;;;;4207897;33;20554;-67
2021/11/25 08:57:30;;;;;;;7.53;6.82;;;;;;;;;;4208818;34;20113;-66
2021/11/25 08:59:56;;;;;;;6.90;6.20;;;;;;;;;;4208133;33;20117;-67
2021/11/25 09:02:22;;;;;;;7.80;6.57;;;;;;;;;;4197284;34;20534;-68
2021/11/25 09:04:48;;;;;;;8.95;6.80;;;;;;;;;;4208909;34;20112;-68
2021/11/25 09:07:15;;;;;;;7.50;6.80;;;;;;;;;;4211078;34;20109;-66
2021/11/25 09:09:41;;;;;;;8.70;6.85;;;;;;;;;;4207930;34;20458;-68
2021/11/25 09:12:07;;;;;;;7.90;6.72;;;;;;;;;;4211907;34;20197;-67
2021/11/25 09:14:33;;;;;;;12.07;7.20;;;;;;;;;;4208075;34;20117;-67
2021/11/25 09:17:00;;;;;;;7.93;6.95;;;;;;;;;;4211253;34;20109;-67
2021/11/25 09:19:26;;;;;;;7.28;6.57;;;;;;;;;;4194959;34;20115;-67
2021/11/25 09:21:52;;;;;;;8.10;6.75;;;;;;;;;;4210274;34;20109;-67
2021/11/25 09:24:18;;;;;;;7.57;6.87;;;;;;;;;;4208682;33;20118;-67
2021/11/25 09:26:44;;;;;;;8.85;6.85;;;;;;;;;;4197431;34;20117;-67
2021/11/25 09:29:11;;;;;;;7.25;6.07;;;;;;;;;;4208219;33;20110;-67
2021/11/25 09:31:38;;;;;;;7.82;6.68;;;;;;;;;;4218000;34;20168;-67
2021/11/25 09:34:05;;;;;;;7.15;6.45;;;;;;;;;;4213816;33;20100;-66
2021/11/25 09:36:34;;;;;;;7.32;6.10;;;;;;;;;;4210393;34;20113;-66
2021/11/25 09:39:01;;;;;;;7.95;6.65;;;;;;;;;;4211230;33;20117;-66
2021/11/25 09:41:27;;;;;;;7.07;6.37;;;;;;;;;;4212793;34;20109;-66
2021/11/25 09:43:53;;;;;;;9.05;6.72;;;;;;;;;;4211211;33;20121;-66
2021/11/25 09:46:22;;;;;;;7.30;6.60;;;;;;;;;;4211852;34;20132;-65
2021/11/25 09:48:49;;;;;;;8.95;6.60;;;;;;;;;;4211003;34;20148;-65
2021/11/25 09:51:15;;;;;;;8.15;6.47;;;;;;;;;;4198765;34;20104;-64
2021/11/25 09:53:41;;;;;;;8.35;6.97;;;;;;;;;;4210715;34;20116;-64
2021/11/25 09:56:08;;;;;;;7.75;6.95;;;;;;;;;;4219850;34;20093;-64
2021/11/25 09:58:36;;;;;;;10.43;6.47;;;;;;;;;;4214146;33;20444;-65
2021/11/25 10:01:03;;;;;;;7.18;6.47;;;;;;;;;;4192063;34;20111;-62
2021/11/25 10:03:30;;;;;;;7.55;6.85;;;;;;;;;;4191865;34;20106;-65
2021/11/25 10:05:58;;;;;;;7.70;6.90;;;;;;;;;;4192030;34;20205;-65
2021/11/25 10:08:32;;;;;;;9.18;7.60;;;;;;;;;;4191802;34;20233;-65
2021/11/25 10:11:15;;;;;;;8.13;6.85;;;;;;;;;;4191896;34;20621;-65
2021/11/25 10:13:56;;;;;;;7.78;7.00;;;;;;;;;;4191772;34;20102;-65
2021/11/25 10:16:29;;;;;;;7.37;6.68;;;;;;;;;;4180335;34;20467;-70
2021/11/25 10:19:08;;;;;;;7.80;6.57;;;;;;;;;;4191965;34;20477;-70
2021/11/25 10:21:34;;;;;;;8.38;6.80;;;;;;;;;;4191667;34;20612;-70
2021/11/25 10:24:00;;;;;;;7.18;6.47;;;;;;;;;;4192275;34;20094;-70
2021/11/25 10:26:28;;;;;;;7.82;7.10;;;;;;;;;;4205573;34;20197;-73
2021/11/25 10:28:56;;;;;;;8.52;7.37;;;;;;;;;;4204890;34;20113;-71
2021/11/25 10:31:36;;;;;;;7.62;6.82;;;;;;;;;;4191880;34;20094;-72
2021/11/25 10:34:16;;;;;;;12.40;8.18;;;;;;;;;;4202974;34;20126;-72
2021/11/25 10:37:04;;;;;;;8.65;7.65;;;;;;;;;;4193697;34;20225;-72
2021/11/25 10:40:22;;;;;;;8.40;7.62;;;;;;;;;;4192035;34;20125;-73
2021/11/25 10:42:32;;;;;;;8.02;7.22;;;;;;;;;;4173761;34;20098;-73
2021/11/25 10:44:58;;;;;;;7.80;7.00;;;;;;;;;;4194625;34;20133;-71
2021/11/25 10:47:26;;;;;;;7.90;7.07;;;;;;;;;;4196218;34;20129;-73
2021/11/25 10:49:59;;;;;;;8.52;7.72;;;;;;;;;;4188288;34;20090;-73
2021/11/25 10:52:27;;;;;;;11.02;7.50;;;;;;;;;;4204849;34;20098;-73
2021/11/25 10:54:56;;;;;;;8.90;8.00;;;;;;;;;;4195310;34;20580;-73
2021/11/25 10:57:24;;;;;;;8.63;7.72;;;;;;;;;;4191839;34;20104;-72
2021/11/25 10:59:54;;;;;;;8.68;7.82;;;;;;;;;;4167975;34;20090;-73
2021/11/25 11:02:31;;;;;;;7.43;6.57;;;;;;;;;;4191937;34;20218;-73
2021/11/25 11:05:00;;;;;;;10.65;7.60;;;;;;;;;;4199211;34;20090;-75
2021/11/25 11:07:38;;;;;;;8.52;7.55;;;;;;;;;;4205110;34;20214;-73
2021/11/25 11:10:26;;;;;;;8.52;7.07;;;;;;;;;;4205202;34;20088;-74
2021/11/25 11:18:42;;;;;;;6.97;6.25;;;;;;;;;;4192765;34;20555;-73
2021/11/25 11:20:48;;;;;;;8.93;6.90;;;;;;;;;;4205640;34;20090;-74
2021/11/25 11:23:23;;;;;;;9.80;6.97;;;;;;;;;;4204724;34;20518;-73
2021/11/25 11:25:54;;;;;;;8.65;7.32;;;;;;;;;;4204772;34;20125;-73
2021/11/25 11:28:20;;;;;;;8.00;7.15;;;;;;;;;;4192441;34;20653;-73
2021/11/25 11:30:47;;;;;;;12.30;7.57;;;;;;;;;;4198241;34;20210;-73
2021/11/25 11:33:14;;;;;;;8.63;6.70;;;;;;;;;;4191576;34;20086;-74
2021/11/25 11:35:41;;;;;;;7.80;6.87;;;;;;;;;;4205244;34;20578;-73
2021/11/25 11:38:13;;;;;;;7.87;6.68;;;;;;;;;;4205506;34;20210;-73
2021/11/25 11:40:39;;;;;;;9.52;6.75;;;;;;;;;;4192348;34;20221;-74
2021/11/25 11:43:06;;;;;;;10.63;8.13;;;;;;;;;;4205141;34;20140;-71
2021/11/25 11:45:34;;;;;;;9.20;7.97;;;;;;;;;;4204919;34;20102;-72
2021/11/25 11:48:04;;;;;;;8.25;7.40;;;;;;;;;;4205138;34;20098;-71
2021/11/25 11:50:35;;;;;;;8.68;7.40;;;;;;;;;;4192374;34;20446;-73
2021/11/25 11:53:05;;;;;;;8.95;7.60;;;;;;;;;;4204920;34;20206;-71
2021/11/25 11:55:35;;;;;;;9.77;8.40;;;;;;;;;;4204949;34;20551;-70
2021/11/25 11:58:27;;;;;;;8.02;7.22;;;;;;;;;;4205400;34;20217;-72
2021/11/25 12:00:58;;;;;;;10.50;8.20;;;;;;;;;;4204470;34;20109;-70
2021/11/25 12:03:50;;;;;;;9.95;8.18;;;;;;;;;;4192131;34;21843;-70
2021/11/25 12:06:52;;;;;;;8.70;7.80;;;;;;;;;;4205254;34;20133;-70
2021/11/25 12:09:23;;;;;;;8.80;7.68;;;;;;;;;;4182409;34;20129;-72
2021/11/25 12:11:52;;;;;;;8.57;7.60;;;;;;;;;;4205320;34;20209;-72
2021/11/25 12:14:20;;;;;;;9.85;7.95;;;;;;;;;;4204864;34;20189;-69
2021/11/25 12:16:52;;;;;;;9.52;8.10;;;;;;;;;;4205105;34;20121;-73
2021/11/25 12:19:30;;;;;;;8.95;8.00;;;;;;;;;;4205344;34;20125;-71
2021/11/25 12:21:58;;;;;;;9.00;7.90;;;;;;;;;;4201928;34;20702;-70
2021/11/25 12:24:30;;;;;;;9.18;8.15;;;;;;;;;;4201552;34;20206;-71
2021/11/25 12:27:25;;;;;;;11.10;8.00;;;;;;;;;;4190920;34;20190;-70
2021/11/25 12:30:12;;;;;;;9.20;8.30;;;;;;;;;;4205000;34;20140;-72
2021/11/25 12:35:19;;;;;;;10.95;9.13;;;;;;;;;;4204449;34;20121;-69
2021/11/25 12:37:48;;;;;;;10.82;8.60;;;;;;;;;;4204550;34;20134;-70
2021/11/25 12:40:17;;;;;;;10.25;9.10;;;;;;;;;;4204624;34;20116;-70
2021/11/25 12:43:01;;;;;;;11.27;9.60;;;;;;;;;;4204489;34;20552;-70
2021/11/25 12:45:33;;;;;;;10.30;9.20;;;;;;;;;;4192995;34;20114;-70
2021/11/25 12:48:05;;;;;;;11.77;9.70;;;;;;;;;;4191735;34;20129;-70
2021/11/25 12:50:44;;;;;;;12.20;9.30;;;;;;;;;;4204592;34;20193;-70
2021/11/25 12:53:13;;;;;;;12.15;9.80;;;;;;;;;;4204357;34;20097;-67
2021/11/25 12:55:39;;;;;;;11.57;9.30;;;;;;;;;;4204542;34;20671;-67
2021/11/25 12:58:06;;;;;;;11.55;9.35;;;;;;;;;;4204435;34;20147;-67
2021/11/25 13:00:35;;;;;;;10.48;9.38;;;;;;;;;;4191861;34;20117;-67
2021/11/25 13:03:09;;;;;;;10.00;8.88;;;;;;;;;;4204483;34;20109;-67
2021/11/25 13:05:37;;;;;;;11.45;9.57;;;;;;;;;;4191595;34;20188;-68
2021/11/25 13:08:06;;;;;;;10.23;8.73;;;;;;;;;;4204476;34;20590;-67
2021/11/25 13:10:35;;;;;;;10.73;8.45;;;;;;;;;;4191869;34;20117;-68
2021/11/25 13:13:15;;;;;;;10.60;7.93;;;;;;;;;;4191336;34;20114;-67
2021/11/25 13:15:55;;;;;;;9.90;7.78;;;;;;;;;;4204250;34;20209;-68
2021/11/25 13:18:22;;;;;;;9.95;7.80;;;;;;;;;;4204219;34;20106;-68
2021/11/25 13:20:52;;;;;;;9.75;7.03;;;;;;;;;;4204349;34;20117;-69
2021/11/25 13:23:21;;;;;;;8.63;6.78;;;;;;;;;;4204002;34;20101;-69
2021/11/25 13:25:52;;;;;;;9.00;6.80;;;;;;;;;;4204144;34;20120;-66
2021/11/25 13:28:33;;;;;;;7.72;6.93;;;;;;;;;;4204134;34;20543;-69
2021/11/25 13:31:08;;;;;;;10.18;7.47;;;;;;;;;;4191258;34;20114;-69
2021/11/25 13:34:12;;;;;;;9.43;6.97;;;;;;;;;;4204149;34;20088;-70
2021/11/25 13:36:39;;;;;;;8.80;6.80;;;;;;;;;;4203594;34;20214;-69
2021/11/25 13:39:41;;;;;;;8.35;7.03;;;;;;;;;;4204113;34;20161;-70
2021/11/25 13:42:12;;;;;;;9.02;7.60;;;;;;;;;;4171147;34;20129;-69
2021/11/25 13:44:41;;;;;;;10.88;6.93;;;;;;;;;;4202475;34;20137;-70
2021/11/25 13:47:19;;;;;;;9.70;7.40;;;;;;;;;;4190745;34;20094;-70
2021/11/25 13:49:53;;;;;;;8.38;7.28;;;;;;;;;;4203898;34;20118;-70
2021/11/25 13:52:22;;;;;;;7.55;6.55;;;;;;;;;;4203342;34;20519;-70
2021/11/25 13:54:48;;;;;;;8.50;7.57;;;;;;;;;;4203413;34;20094;-71
2021/11/25 13:57:17;;;;;;;9.82;8.07;;;;;;;;;;4190566;34;20516;-71
2021/11/25 13:59:44;;;;;;;10.52;8.15;;;;;;;;;;4203768;34;20586;-72
2021/11/25 14:02:10;;;;;;;10.65;7.87;;;;;;;;;;4190666;34;20591;-73
2021/11/25 14:04:36;;;;;;;9.35;7.85;;;;;;;;;;4204145;34;20129;-71
2021/11/25 14:07:07;;;;;;;14.77;7.95;;;;;;;;;;4203573;34;20141;-70
2021/11/25 14:09:33;;;;;;;8.25;7.37;;;;;;;;;;4191312;34;20517;-72
2021/11/25 14:12:01;;;;;;;9.35;7.78;;;;;;;;;;4203223;34;20102;-71
2021/11/25 14:14:33;;;;;;;10.25;8.32;;;;;;;;;;4203976;34;20129;-72
2021/11/25 14:16:59;;;;;;;10.85;8.45;;;;;;;;;;4190559;34;20127;-70
2021/11/25 14:19:26;;;;;;;11.60;8.80;;;;;;;;;;4203763;34;20177;-72
2021/11/25 14:21:58;;;;;;;9.75;8.20;;;;;;;;;;4203573;34;20581;-72
2021/11/25 14:24:30;;;;;;;11.25;9.30;;;;;;;;;;4190991;34;20126;-72
2021/11/25 14:32:46;;;;;;;9.43;8.43;;;;;;;;;;4183480;34;20121;-69
2021/11/25 14:35:26;;;;;;;9.88;8.50;;;;;;;;;;4179403;34;20176;-70
2021/11/25 14:37:55;;;;;;;15.15;9.45;;;;;;;;;;4205588;34;20190;-69
2021/11/25 14:40:21;;;;;;;9.77;8.77;;;;;;;;;;4203469;34;20682;-69
2021/11/25 14:43:09;;;;;;;13.05;9.05;;;;;;;;;;4191855;34;20101;-70
2021/11/25 14:45:38;;;;;;;10.52;8.95;;;;;;;;;;4191510;34;20522;-68
2021/11/25 14:48:15;;;;;;;12.27;9.68;;;;;;;;;;4167988;34;20082;-68
2021/11/25 14:50:41;;;;;;;13.48;9.45;;;;;;;;;;4191704;34;20639;-69
2021/11/25 14:53:12;;;;;;;11.57;9.38;;;;;;;;;;4191281;34;20120;-71
2021/11/25 14:55:51;;;;;;;12.40;8.98;;;;;;;;;;4178777;34;20110;-65
2021/11/25 14:58:17;;;;;;;11.95;9.93;;;;;;;;;;4191496;34;20470;-65
2021/11/25 15:00:45;;;;;;;10.43;9.10;;;;;;;;;;4178762;34;20218;-67
2021/11/25 15:03:11;;;;;;;10.32;9.27;;;;;;;;;;4191271;34;20121;-67
2021/11/25 15:05:48;;;;;;;11.82;9.20;;;;;;;;;;4191655;34;20130;-67
2021/11/25 15:08:16;;;;;;;10.70;9.13;;;;;;;;;;4191251;34;20145;-67
2021/11/25 15:10:45;;;;;;;9.30;8.30;;;;;;;;;;4181505;34;20101;-68
2021/11/25 15:13:12;;;;;;;10.43;7.80;;;;;;;;;;4204916;34;20085;-68
2021/11/25 15:15:50;;;;;;;11.43;9.38;;;;;;;;;;4204355;34;20121;-68
2021/11/25 15:18:18;;;;;;;11.70;8.55;;;;;;;;;;4204835;34;20110;-68
2021/11/25 15:20:46;;;;;;;11.95;9.00;;;;;;;;;;4204850;34;20162;-67
2021/11/25 15:23:12;;;;;;;12.23;8.25;;;;;;;;;;4204875;34;20543;-70
2021/11/25 15:25:39;;;;;;;9.88;8.38;;;;;;;;;;4205212;34;20117;-68
2021/11/25 15:28:05;;;;;;;10.57;8.13;;;;;;;;;;4205099;34;20443;-68